sensor_id;sensor_type;location;lat;lon;timestamp;P1;durP1;ratioP1;P2;durP2;ratioP2
663;SDS011;314;48.770;9.246;2022-09-03T00:01:27;2.87;;;1.20;;
663;SDS011;314;48.770;9.246;2022-09-03T00:04:23;10.30;;;1.85;;
663;SDS011;314;48.770;9.246;2022-09-03T00:07:05;1.58;;;1.50;;
663;SDS011;314;48.770;9.246;2022-09-03T00:09:40;1.48;;;1.40;;
663;SDS011;314;48.770;9.246;2022-09-03T00:12:16;1.60;;;1.20;;
663;SDS011;314;48.770;9.246;2022-09-03T00:14:52;1.23;;;1.20;;
663;SDS011;314;48.770;9.246;2022-09-03T00:17:27;1.45;;;1.23;;
663;SDS011;314;48.770;9.246;2022-09-03T00:20:05;1.35;;;1.25;;
663;SDS011;314;48.770;9.246;2022-09-03T00:22:40;2.20;;;1.42;;
663;SDS011;314;48.770;9.246;2022-09-03T00:25:11;2.38;;;1.40;;
663;SDS011;314;48.770;9.246;2022-09-03T00:27:41;2.72;;;1.50;;
663;SDS011;314;48.770;9.246;2022-09-03T00:30:10;2.20;;;1.40;;
663;SDS011;314;48.770;9.246;2022-09-03T00:32:42;1.42;;;1.20;;
663;SDS011;314;48.770;9.246;2022-09-03T00:37:56;1.13;;;0.90;;
663;SDS011;314;48.770;9.246;2022-09-03T00:51:22;1.77;;;1.25;;
663;SDS011;314;48.770;9.246;2022-09-03T00:57:21;2.08;;;1.20;;
663;SDS011;314;48.770;9.246;2022-09-03T01:19:22;1.38;;;1.25;;
663;SDS011;314;48.770;9.246;2022-09-03T01:27:38;1.15;;;1.05;;
663;SDS011;314;48.770;9.246;2022-09-03T01:30:23;1.17;;;1.10;;
663;SDS011;314;48.770;9.246;2022-09-03T01:35:48;0.70;;;0.70;;
663;SDS011;314;48.770;9.246;2022-09-03T01:38:41;1.38;;;1.30;;
663;SDS011;314;48.770;9.246;2022-09-03T01:42:18;1.73;;;1.23;;
663;SDS011;314;48.770;9.246;2022-09-03T01:50:12;1.23;;;1.00;;
663;SDS011;314;48.770;9.246;2022-09-03T01:52:58;1.20;;;0.93;;
663;SDS011;314;48.770;9.246;2022-09-03T01:58:21;3.25;;;1.70;;
663;SDS011;314;48.770;9.246;2022-09-03T02:01:04;1.75;;;1.10;;
663;SDS011;314;48.770;9.246;2022-09-03T02:03:35;3.05;;;1.42;;
663;SDS011;314;48.770;9.246;2022-09-03T02:06:05;1.45;;;1.27;;
663;SDS011;314;48.770;9.246;2022-09-03T02:08:32;3.55;;;1.45;;
663;SDS011;314;48.770;9.246;2022-09-03T02:10:58;3.13;;;1.80;;
663;SDS011;314;48.770;9.246;2022-09-03T02:16:22;1.10;;;1.10;;
663;SDS011;314;48.770;9.246;2022-09-03T02:18:56;1.85;;;0.98;;
663;SDS011;314;48.770;9.246;2022-09-03T02:21:26;1.30;;;1.25;;
663;SDS011;314;48.770;9.246;2022-09-03T02:23:57;1.30;;;1.10;;
663;SDS011;314;48.770;9.246;2022-09-03T02:26:23;1.30;;;1.20;;
663;SDS011;314;48.770;9.246;2022-09-03T02:28:50;1.40;;;1.30;;
663;SDS011;314;48.770;9.246;2022-09-03T02:31:17;1.52;;;1.50;;
663;SDS011;314;48.770;9.246;2022-09-03T02:33:44;1.27;;;1.13;;
663;SDS011;314;48.770;9.246;2022-09-03T02:36:13;2.95;;;1.38;;
663;SDS011;314;48.770;9.246;2022-09-03T02:38:41;1.80;;;1.45;;
663;SDS011;314;48.770;9.246;2022-09-03T02:41:08;0.95;;;0.93;;
663;SDS011;314;48.770;9.246;2022-09-03T02:44:01;2.35;;;1.15;;
663;SDS011;314;48.770;9.246;2022-09-03T02:46:44;2.22;;;1.83;;
663;SDS011;314;48.770;9.246;2022-09-03T02:49:13;1.85;;;1.48;;
663;SDS011;314;48.770;9.246;2022-09-03T02:51:39;1.10;;;1.00;;
663;SDS011;314;48.770;9.246;2022-09-03T02:54:11;0.85;;;0.75;;
663;SDS011;314;48.770;9.246;2022-09-03T02:56:37;11.85;;;1.70;;
663;SDS011;314;48.770;9.246;2022-09-03T02:59:04;1.63;;;1.20;;
663;SDS011;314;48.770;9.246;2022-09-03T03:01:30;1.30;;;1.13;;
663;SDS011;314;48.770;9.246;2022-09-03T03:03:57;1.40;;;1.30;;
663;SDS011;314;48.770;9.246;2022-09-03T03:06:22;1.67;;;1.50;;
663;SDS011;314;48.770;9.246;2022-09-03T03:08:49;1.33;;;1.23;;
663;SDS011;314;48.770;9.246;2022-09-03T03:11:15;1.85;;;1.40;;
663;SDS011;314;48.770;9.246;2022-09-03T03:13:45;1.58;;;1.48;;
663;SDS011;314;48.770;9.246;2022-09-03T03:16:11;3.20;;;1.30;;
663;SDS011;314;48.770;9.246;2022-09-03T03:18:37;2.30;;;1.35;;
663;SDS011;314;48.770;9.246;2022-09-03T03:21:04;2.25;;;1.50;;
663;SDS011;314;48.770;9.246;2022-09-03T03:23:35;1.35;;;1.23;;
663;SDS011;314;48.770;9.246;2022-09-03T03:26:06;2.45;;;1.38;;
663;SDS011;314;48.770;9.246;2022-09-03T03:28:34;1.50;;;1.15;;
663;SDS011;314;48.770;9.246;2022-09-03T03:31:10;1.60;;;1.33;;
663;SDS011;314;48.770;9.246;2022-09-03T03:33:38;1.75;;;1.45;;
663;SDS011;314;48.770;9.246;2022-09-03T03:36:12;1.50;;;1.25;;
663;SDS011;314;48.770;9.246;2022-09-03T03:38:39;1.48;;;1.38;;
663;SDS011;314;48.770;9.246;2022-09-03T03:41:09;2.35;;;1.52;;
663;SDS011;314;48.770;9.246;2022-09-03T03:43:37;1.88;;;1.70;;
663;SDS011;314;48.770;9.246;2022-09-03T03:46:03;1.50;;;1.30;;
663;SDS011;314;48.770;9.246;2022-09-03T03:48:30;3.17;;;1.63;;
663;SDS011;314;48.770;9.246;2022-09-03T03:51:00;1.15;;;0.90;;
663;SDS011;314;48.770;9.246;2022-09-03T03:53:29;1.35;;;1.25;;
663;SDS011;314;48.770;9.246;2022-09-03T03:55:56;1.70;;;1.35;;
663;SDS011;314;48.770;9.246;2022-09-03T03:58:23;1.52;;;1.42;;
663;SDS011;314;48.770;9.246;2022-09-03T04:00:50;2.93;;;2.07;;
663;SDS011;314;48.770;9.246;2022-09-03T04:03:16;1.75;;;1.30;;
663;SDS011;314;48.770;9.246;2022-09-03T04:05:42;2.83;;;1.92;;
663;SDS011;314;48.770;9.246;2022-09-03T04:08:18;2.03;;;1.67;;
663;SDS011;314;48.770;9.246;2022-09-03T04:10:44;1.47;;;1.37;;
663;SDS011;314;48.770;9.246;2022-09-03T04:13:09;0.90;;;0.90;;
663;SDS011;314;48.770;9.246;2022-09-03T04:15:35;1.53;;;1.43;;
663;SDS011;314;48.770;9.246;2022-09-03T04:18:01;2.00;;;1.30;;
663;SDS011;314;48.770;9.246;2022-09-03T04:20:26;1.93;;;1.87;;
663;SDS011;314;48.770;9.246;2022-09-03T04:22:52;4.20;;;2.37;;
663;SDS011;314;48.770;9.246;2022-09-03T04:25:18;2.93;;;1.50;;
663;SDS011;314;48.770;9.246;2022-09-03T04:27:44;5.07;;;1.87;;
663;SDS011;314;48.770;9.246;2022-09-03T04:30:09;1.33;;;0.97;;
663;SDS011;314;48.770;9.246;2022-09-03T04:32:35;2.05;;;1.80;;
663;SDS011;314;48.770;9.246;2022-09-03T04:35:24;1.92;;;1.40;;
663;SDS011;314;48.770;9.246;2022-09-03T04:37:51;2.42;;;1.55;;
663;SDS011;314;48.770;9.246;2022-09-03T04:40:19;1.63;;;1.60;;
663;SDS011;314;48.770;9.246;2022-09-03T04:42:44;1.27;;;1.17;;
663;SDS011;314;48.770;9.246;2022-09-03T04:45:10;2.03;;;1.53;;
663;SDS011;314;48.770;9.246;2022-09-03T04:47:39;2.30;;;1.42;;
663;SDS011;314;48.770;9.246;2022-09-03T04:50:06;3.67;;;1.50;;
663;SDS011;314;48.770;9.246;2022-09-03T04:52:32;1.08;;;0.98;;
663;SDS011;314;48.770;9.246;2022-09-03T04:54:58;1.53;;;1.37;;
663;SDS011;314;48.770;9.246;2022-09-03T04:57:24;3.25;;;1.60;;
663;SDS011;314;48.770;9.246;2022-09-03T04:59:58;1.60;;;1.42;;
663;SDS011;314;48.770;9.246;2022-09-03T05:02:24;4.10;;;2.30;;
663;SDS011;314;48.770;9.246;2022-09-03T05:04:50;1.70;;;1.40;;
663;SDS011;314;48.770;9.246;2022-09-03T05:07:17;2.00;;;1.50;;
663;SDS011;314;48.770;9.246;2022-09-03T05:09:44;1.60;;;1.50;;
663;SDS011;314;48.770;9.246;2022-09-03T05:12:10;1.63;;;1.47;;
663;SDS011;314;48.770;9.246;2022-09-03T05:14:37;4.13;;;1.65;;
663;SDS011;314;48.770;9.246;2022-09-03T05:17:02;1.67;;;1.23;;
663;SDS011;314;48.770;9.246;2022-09-03T05:19:28;4.30;;;1.50;;
663;SDS011;314;48.770;9.246;2022-09-03T05:21:55;2.28;;;1.75;;
663;SDS011;314;48.770;9.246;2022-09-03T05:24:21;3.50;;;1.57;;
663;SDS011;314;48.770;9.246;2022-09-03T05:26:47;1.63;;;1.57;;
663;SDS011;314;48.770;9.246;2022-09-03T05:29:12;3.37;;;1.40;;
663;SDS011;314;48.770;9.246;2022-09-03T05:31:40;3.47;;;1.40;;
663;SDS011;314;48.770;9.246;2022-09-03T05:34:06;1.30;;;1.20;;
663;SDS011;314;48.770;9.246;2022-09-03T05:36:33;2.20;;;1.65;;
663;SDS011;314;48.770;9.246;2022-09-03T05:39:00;1.50;;;1.40;;
663;SDS011;314;48.770;9.246;2022-09-03T05:41:27;5.80;;;1.90;;
663;SDS011;314;48.770;9.246;2022-09-03T05:43:53;1.80;;;1.70;;
663;SDS011;314;48.770;9.246;2022-09-03T05:46:23;3.97;;;1.55;;
663;SDS011;314;48.770;9.246;2022-09-03T05:49:02;1.10;;;1.00;;
663;SDS011;314;48.770;9.246;2022-09-03T05:51:30;1.67;;;1.63;;
663;SDS011;314;48.770;9.246;2022-09-03T05:53:57;2.88;;;2.15;;
663;SDS011;314;48.770;9.246;2022-09-03T05:56:27;2.38;;;1.90;;
663;SDS011;314;48.770;9.246;2022-09-03T05:58:55;2.75;;;1.77;;
663;SDS011;314;48.770;9.246;2022-09-03T06:01:25;2.38;;;1.55;;
663;SDS011;314;48.770;9.246;2022-09-03T06:03:54;2.42;;;1.80;;
663;SDS011;314;48.770;9.246;2022-09-03T06:06:21;2.35;;;2.00;;
663;SDS011;314;48.770;9.246;2022-09-03T06:08:51;2.90;;;1.85;;
663;SDS011;314;48.770;9.246;2022-09-03T06:11:22;2.90;;;1.83;;
663;SDS011;314;48.770;9.246;2022-09-03T06:13:55;2.95;;;1.40;;
663;SDS011;314;48.770;9.246;2022-09-03T06:16:21;1.70;;;1.67;;
663;SDS011;314;48.770;9.246;2022-09-03T06:18:48;2.05;;;1.67;;
663;SDS011;314;48.770;9.246;2022-09-03T06:21:14;3.00;;;1.93;;
663;SDS011;314;48.770;9.246;2022-09-03T06:23:40;2.03;;;1.73;;
663;SDS011;314;48.770;9.246;2022-09-03T06:26:07;2.13;;;1.75;;
663;SDS011;314;48.770;9.246;2022-09-03T06:28:38;2.60;;;1.85;;
663;SDS011;314;48.770;9.246;2022-09-03T06:31:07;6.20;;;2.30;;
663;SDS011;314;48.770;9.246;2022-09-03T06:33:36;6.35;;;1.38;;
663;SDS011;314;48.770;9.246;2022-09-03T06:36:06;1.60;;;1.58;;
663;SDS011;314;48.770;9.246;2022-09-03T06:38:33;2.97;;;1.52;;
663;SDS011;314;48.770;9.246;2022-09-03T06:41:03;5.18;;;2.97;;
663;SDS011;314;48.770;9.246;2022-09-03T06:43:30;1.35;;;1.25;;
663;SDS011;314;48.770;9.246;2022-09-03T06:46:01;2.63;;;1.65;;
663;SDS011;314;48.770;9.246;2022-09-03T06:48:30;4.90;;;2.05;;
663;SDS011;314;48.770;9.246;2022-09-03T06:51:03;2.58;;;1.77;;
663;SDS011;314;48.770;9.246;2022-09-03T06:53:34;1.70;;;1.40;;
663;SDS011;314;48.770;9.246;2022-09-03T06:56:02;2.80;;;2.00;;
663;SDS011;314;48.770;9.246;2022-09-03T06:58:30;6.57;;;2.25;;
663;SDS011;314;48.770;9.246;2022-09-03T07:01:20;3.72;;;1.13;;
663;SDS011;314;48.770;9.246;2022-09-03T07:03:50;2.28;;;1.70;;
663;SDS011;314;48.770;9.246;2022-09-03T07:06:20;2.28;;;1.83;;
663;SDS011;314;48.770;9.246;2022-09-03T07:08:46;3.22;;;1.80;;
663;SDS011;314;48.770;9.246;2022-09-03T07:11:13;2.97;;;1.63;;
663;SDS011;314;48.770;9.246;2022-09-03T07:13:42;5.40;;;1.60;;
663;SDS011;314;48.770;9.246;2022-09-03T07:16:11;2.40;;;1.60;;
663;SDS011;314;48.770;9.246;2022-09-03T07:18:38;2.58;;;1.50;;
663;SDS011;314;48.770;9.246;2022-09-03T07:21:08;1.90;;;1.80;;
663;SDS011;314;48.770;9.246;2022-09-03T07:23:37;1.77;;;1.48;;
663;SDS011;314;48.770;9.246;2022-09-03T07:26:05;3.40;;;1.75;;
663;SDS011;314;48.770;9.246;2022-09-03T07:28:33;1.80;;;1.50;;
663;SDS011;314;48.770;9.246;2022-09-03T07:31:02;3.92;;;1.63;;
663;SDS011;314;48.770;9.246;2022-09-03T07:33:39;3.38;;;1.75;;
663;SDS011;314;48.770;9.246;2022-09-03T07:36:08;3.42;;;2.10;;
663;SDS011;314;48.770;9.246;2022-09-03T07:38:36;1.85;;;1.65;;
663;SDS011;314;48.770;9.246;2022-09-03T07:41:03;2.25;;;1.92;;
663;SDS011;314;48.770;9.246;2022-09-03T07:43:35;3.28;;;1.70;;
663;SDS011;314;48.770;9.246;2022-09-03T07:46:04;1.98;;;1.70;;
663;SDS011;314;48.770;9.246;2022-09-03T07:48:42;2.92;;;1.90;;
663;SDS011;314;48.770;9.246;2022-09-03T07:51:08;2.40;;;2.20;;
663;SDS011;314;48.770;9.246;2022-09-03T07:53:34;2.47;;;1.77;;
663;SDS011;314;48.770;9.246;2022-09-03T07:56:09;2.58;;;2.00;;
663;SDS011;314;48.770;9.246;2022-09-03T07:58:37;2.35;;;1.58;;
663;SDS011;314;48.770;9.246;2022-09-03T08:01:05;3.40;;;1.92;;
663;SDS011;314;48.770;9.246;2022-09-03T08:03:44;3.53;;;2.00;;
663;SDS011;314;48.770;9.246;2022-09-03T08:06:15;2.38;;;1.77;;
663;SDS011;314;48.770;9.246;2022-09-03T08:08:42;2.47;;;1.77;;
663;SDS011;314;48.770;9.246;2022-09-03T08:11:15;3.20;;;2.30;;
663;SDS011;314;48.770;9.246;2022-09-03T08:13:44;5.13;;;2.25;;
663;SDS011;314;48.770;9.246;2022-09-03T08:16:13;2.78;;;2.08;;
663;SDS011;314;48.770;9.246;2022-09-03T08:18:40;6.97;;;1.90;;
663;SDS011;314;48.770;9.246;2022-09-03T08:21:11;3.20;;;2.35;;
663;SDS011;314;48.770;9.246;2022-09-03T08:23:40;3.92;;;1.80;;
663;SDS011;314;48.770;9.246;2022-09-03T08:26:07;5.57;;;2.47;;
663;SDS011;314;48.770;9.246;2022-09-03T08:28:34;4.45;;;2.72;;
663;SDS011;314;48.770;9.246;2022-09-03T08:31:04;4.82;;;2.15;;
663;SDS011;314;48.770;9.246;2022-09-03T08:33:31;2.05;;;1.60;;
663;SDS011;314;48.770;9.246;2022-09-03T08:36:04;1.98;;;1.88;;
663;SDS011;314;48.770;9.246;2022-09-03T08:38:37;2.97;;;2.00;;
663;SDS011;314;48.770;9.246;2022-09-03T08:41:06;3.70;;;2.42;;
663;SDS011;314;48.770;9.246;2022-09-03T08:49:22;3.95;;;2.00;;
663;SDS011;314;48.770;9.246;2022-09-03T08:51:52;5.30;;;2.15;;
663;SDS011;314;48.770;9.246;2022-09-03T08:54:22;4.28;;;2.45;;
663;SDS011;314;48.770;9.246;2022-09-03T08:56:51;2.28;;;2.00;;
663;SDS011;314;48.770;9.246;2022-09-03T08:59:19;4.43;;;2.50;;
663;SDS011;314;48.770;9.246;2022-09-03T09:05:04;3.90;;;1.80;;
663;SDS011;314;48.770;9.246;2022-09-03T09:08:03;4.13;;;2.15;;
663;SDS011;314;48.770;9.246;2022-09-03T09:10:43;2.80;;;1.98;;
663;SDS011;314;48.770;9.246;2022-09-03T09:21:59;2.67;;;2.35;;
663;SDS011;314;48.770;9.246;2022-09-03T09:24:30;2.55;;;2.13;;
663;SDS011;314;48.770;9.246;2022-09-03T09:27:05;3.53;;;2.47;;
663;SDS011;314;48.770;9.246;2022-09-03T09:29:34;3.15;;;2.35;;
663;SDS011;314;48.770;9.246;2022-09-03T09:32:00;2.72;;;2.15;;
663;SDS011;314;48.770;9.246;2022-09-03T09:34:32;2.83;;;2.35;;
663;SDS011;314;48.770;9.246;2022-09-03T09:37:03;2.55;;;2.25;;
663;SDS011;314;48.770;9.246;2022-09-03T09:39:33;2.55;;;2.30;;
663;SDS011;314;48.770;9.246;2022-09-03T09:41:59;3.90;;;2.77;;
663;SDS011;314;48.770;9.246;2022-09-03T09:44:37;4.60;;;2.75;;
663;SDS011;314;48.770;9.246;2022-09-03T09:47:06;6.78;;;2.70;;
663;SDS011;314;48.770;9.246;2022-09-03T09:49:52;4.25;;;2.20;;
663;SDS011;314;48.770;9.246;2022-09-03T09:52:19;4.32;;;3.20;;
663;SDS011;314;48.770;9.246;2022-09-03T09:54:49;8.35;;;2.47;;
663;SDS011;314;48.770;9.246;2022-09-03T09:57:24;4.40;;;2.75;;
663;SDS011;314;48.770;9.246;2022-09-03T10:00:04;6.03;;;2.97;;
663;SDS011;314;48.770;9.246;2022-09-03T10:02:36;3.95;;;2.20;;
663;SDS011;314;48.770;9.246;2022-09-03T10:05:14;4.28;;;2.38;;
663;SDS011;314;48.770;9.246;2022-09-03T10:07:56;5.03;;;2.47;;
663;SDS011;314;48.770;9.246;2022-09-03T10:10:26;5.90;;;2.80;;
663;SDS011;314;48.770;9.246;2022-09-03T10:18:33;3.47;;;2.42;;
663;SDS011;314;48.770;9.246;2022-09-03T10:21:11;4.60;;;2.75;;
663;SDS011;314;48.770;9.246;2022-09-03T10:26:31;3.95;;;2.63;;
663;SDS011;314;48.770;9.246;2022-09-03T10:28:59;3.83;;;2.35;;
663;SDS011;314;48.770;9.246;2022-09-03T10:31:30;3.75;;;2.35;;
663;SDS011;314;48.770;9.246;2022-09-03T10:51:49;3.35;;;2.22;;
663;SDS011;314;48.770;9.246;2022-09-03T10:54:26;2.33;;;2.13;;
663;SDS011;314;48.770;9.246;2022-09-03T11:00:17;4.70;;;2.90;;
663;SDS011;314;48.770;9.246;2022-09-03T11:05:42;2.63;;;2.45;;
663;SDS011;314;48.770;9.246;2022-09-03T11:08:21;2.45;;;1.80;;
663;SDS011;314;48.770;9.246;2022-09-03T11:10:59;3.10;;;1.88;;
663;SDS011;314;48.770;9.246;2022-09-03T11:14:02;10.40;;;2.70;;
663;SDS011;314;48.770;9.246;2022-09-03T11:16:35;2.45;;;2.15;;
663;SDS011;314;48.770;9.246;2022-09-03T11:22:19;4.78;;;2.67;;
663;SDS011;314;48.770;9.246;2022-09-03T11:24:49;5.68;;;2.80;;
663;SDS011;314;48.770;9.246;2022-09-03T11:30:01;3.92;;;2.65;;
663;SDS011;314;48.770;9.246;2022-09-03T11:35:53;3.10;;;2.83;;
663;SDS011;314;48.770;9.246;2022-09-03T11:38:20;2.30;;;2.10;;
663;SDS011;314;48.770;9.246;2022-09-03T11:41:10;4.07;;;2.13;;
663;SDS011;314;48.770;9.246;2022-09-03T11:43:47;2.45;;;1.90;;
663;SDS011;314;48.770;9.246;2022-09-03T11:48:49;3.30;;;2.33;;
663;SDS011;314;48.770;9.246;2022-09-03T11:53:55;8.68;;;3.60;;
663;SDS011;314;48.770;9.246;2022-09-03T11:56:23;2.85;;;2.20;;
663;SDS011;314;48.770;9.246;2022-09-03T11:59:00;2.92;;;2.22;;
663;SDS011;314;48.770;9.246;2022-09-03T12:01:45;3.47;;;2.72;;
663;SDS011;314;48.770;9.246;2022-09-03T12:04:32;3.05;;;2.42;;
663;SDS011;314;48.770;9.246;2022-09-03T12:13:12;3.92;;;2.30;;
663;SDS011;314;48.770;9.246;2022-09-03T12:15:51;4.32;;;2.15;;
663;SDS011;314;48.770;9.246;2022-09-03T12:18:28;2.95;;;2.60;;
663;SDS011;314;48.770;9.246;2022-09-03T12:26:02;3.42;;;2.60;;
663;SDS011;314;48.770;9.246;2022-09-03T12:28:33;2.55;;;2.15;;
663;SDS011;314;48.770;9.246;2022-09-03T12:31:17;4.70;;;2.88;;
663;SDS011;314;48.770;9.246;2022-09-03T12:33:51;2.72;;;1.90;;
663;SDS011;314;48.770;9.246;2022-09-03T12:36:19;3.20;;;1.55;;
663;SDS011;314;48.770;9.246;2022-09-03T12:38:47;4.20;;;1.50;;
663;SDS011;314;48.770;9.246;2022-09-03T12:41:26;1.40;;;1.30;;
663;SDS011;314;48.770;9.246;2022-09-03T12:43:58;2.65;;;1.17;;
663;SDS011;314;48.770;9.246;2022-09-03T12:46:28;1.10;;;0.80;;
663;SDS011;314;48.770;9.246;2022-09-03T12:49:00;4.82;;;1.73;;
663;SDS011;314;48.770;9.246;2022-09-03T12:51:36;1.52;;;1.02;;
663;SDS011;314;48.770;9.246;2022-09-03T12:54:08;1.35;;;1.05;;
663;SDS011;314;48.770;9.246;2022-09-03T12:56:43;0.98;;;0.95;;
663;SDS011;314;48.770;9.246;2022-09-03T12:59:17;9.00;;;1.95;;
663;SDS011;314;48.770;9.246;2022-09-03T13:01:50;2.05;;;1.00;;
663;SDS011;314;48.770;9.246;2022-09-03T13:04:20;3.00;;;1.70;;
663;SDS011;314;48.770;9.246;2022-09-03T13:07:00;2.65;;;1.88;;
663;SDS011;314;48.770;9.246;2022-09-03T13:09:35;1.45;;;1.17;;
663;SDS011;314;48.770;9.246;2022-09-03T13:12:03;2.60;;;0.90;;
663;SDS011;314;48.770;9.246;2022-09-03T13:14:40;1.48;;;0.80;;
663;SDS011;314;48.770;9.246;2022-09-03T13:19:47;4.72;;;1.30;;
663;SDS011;314;48.770;9.246;2022-09-03T13:30:52;2.95;;;2.10;;
663;SDS011;314;48.770;9.246;2022-09-03T13:33:49;2.55;;;1.50;;
663;SDS011;314;48.770;9.246;2022-09-03T13:36:25;1.27;;;0.85;;
663;SDS011;314;48.770;9.246;2022-09-03T13:39:02;2.05;;;1.30;;
663;SDS011;314;48.770;9.246;2022-09-03T13:41:38;1.02;;;1.02;;
663;SDS011;314;48.770;9.246;2022-09-03T13:44:28;2.15;;;1.40;;
663;SDS011;314;48.770;9.246;2022-09-03T13:50:21;2.45;;;1.40;;
663;SDS011;314;48.770;9.246;2022-09-03T13:55:40;7.20;;;1.73;;
663;SDS011;314;48.770;9.246;2022-09-03T14:15:09;4.38;;;1.13;;
663;SDS011;314;48.770;9.246;2022-09-03T14:20:58;1.73;;;1.27;;
663;SDS011;314;48.770;9.246;2022-09-03T14:24:30;1.67;;;1.58;;
663;SDS011;314;48.770;9.246;2022-09-03T14:26:33;1.73;;;1.27;;
663;SDS011;314;48.770;9.246;2022-09-03T14:29:05;1.90;;;1.50;;
663;SDS011;314;48.770;9.246;2022-09-03T14:31:40;3.75;;;1.40;;
663;SDS011;314;48.770;9.246;2022-09-03T14:40:13;3.13;;;1.10;;
663;SDS011;314;48.770;9.246;2022-09-03T15:10:59;1.63;;;0.98;;
663;SDS011;314;48.770;9.246;2022-09-03T15:13:32;1.70;;;1.27;;
663;SDS011;314;48.770;9.246;2022-09-03T15:28:26;1.40;;;1.08;;
663;SDS011;314;48.770;9.246;2022-09-03T15:31:16;1.58;;;1.30;;
663;SDS011;314;48.770;9.246;2022-09-03T15:33:51;9.32;;;1.13;;
663;SDS011;314;48.770;9.246;2022-09-03T15:36:23;1.70;;;1.15;;
663;SDS011;314;48.770;9.246;2022-09-03T15:39:04;1.15;;;0.90;;
663;SDS011;314;48.770;9.246;2022-09-03T15:44:13;0.50;;;0.50;;
663;SDS011;314;48.770;9.246;2022-09-03T15:46:58;0.90;;;0.70;;
663;SDS011;314;48.770;9.246;2022-09-03T15:57:25;1.15;;;0.90;;
663;SDS011;314;48.770;9.246;2022-09-03T16:05:25;2.40;;;1.13;;
663;SDS011;314;48.770;9.246;2022-09-03T16:08:09;2.30;;;1.20;;
663;SDS011;314;48.770;9.246;2022-09-03T16:10:40;1.35;;;1.20;;
663;SDS011;314;48.770;9.246;2022-09-03T16:16:14;2.97;;;1.40;;
663;SDS011;314;48.770;9.246;2022-09-03T16:18:53;2.47;;;1.17;;
663;SDS011;314;48.770;9.246;2022-09-03T16:24:17;1.88;;;0.80;;
663;SDS011;314;48.770;9.246;2022-09-03T16:27:02;3.38;;;1.33;;
663;SDS011;314;48.770;9.246;2022-09-03T16:29:32;1.38;;;1.23;;
663;SDS011;314;48.770;9.246;2022-09-03T16:32:22;1.60;;;1.15;;
663;SDS011;314;48.770;9.246;2022-09-03T16:51:11;1.30;;;1.02;;
663;SDS011;314;48.770;9.246;2022-09-03T16:56:39;1.55;;;1.25;;
663;SDS011;314;48.770;9.246;2022-09-03T17:13:25;4.10;;;1.23;;
663;SDS011;314;48.770;9.246;2022-09-03T17:16:29;2.33;;;1.00;;
663;SDS011;314;48.770;9.246;2022-09-03T17:33:37;3.25;;;1.40;;
663;SDS011;314;48.770;9.246;2022-09-03T17:36:27;2.20;;;1.10;;
663;SDS011;314;48.770;9.246;2022-09-03T17:39:21;2.15;;;1.13;;
663;SDS011;314;48.770;9.246;2022-09-03T17:41:52;1.90;;;1.45;;
663;SDS011;314;48.770;9.246;2022-09-03T17:52:49;1.27;;;1.20;;
663;SDS011;314;48.770;9.246;2022-09-03T17:57:58;3.10;;;1.63;;
663;SDS011;314;48.770;9.246;2022-09-03T18:09:39;2.15;;;1.50;;
663;SDS011;314;48.770;9.246;2022-09-03T18:15:14;1.67;;;1.27;;
663;SDS011;314;48.770;9.246;2022-09-03T18:18:07;0.95;;;0.90;;
663;SDS011;314;48.770;9.246;2022-09-03T18:20:47;2.30;;;1.38;;
663;SDS011;314;48.770;9.246;2022-09-03T18:23:51;2.40;;;1.42;;
663;SDS011;314;48.770;9.246;2022-09-03T18:26:45;5.93;;;2.78;;
663;SDS011;314;48.770;9.246;2022-09-03T18:29:36;3.83;;;2.00;;
663;SDS011;314;48.770;9.246;2022-09-03T18:32:36;5.25;;;2.55;;
663;SDS011;314;48.770;9.246;2022-09-03T18:35:20;2.65;;;1.70;;
663;SDS011;314;48.770;9.246;2022-09-03T18:38:08;2.58;;;1.80;;
663;SDS011;314;48.770;9.246;2022-09-03T18:41:04;1.90;;;0.95;;
663;SDS011;314;48.770;9.246;2022-09-03T18:44:04;2.78;;;1.50;;
663;SDS011;314;48.770;9.246;2022-09-03T18:53:13;5.07;;;3.15;;
663;SDS011;314;48.770;9.246;2022-09-03T19:00:27;16.33;;;6.38;;
663;SDS011;314;48.770;9.246;2022-09-03T19:09:34;16.05;;;5.82;;
663;SDS011;314;48.770;9.246;2022-09-03T19:16:04;9.25;;;3.90;;
663;SDS011;314;48.770;9.246;2022-09-03T19:25:12;1.92;;;1.33;;
663;SDS011;314;48.770;9.246;2022-09-03T19:28:17;3.00;;;1.52;;
663;SDS011;314;48.770;9.246;2022-09-03T19:37:17;3.13;;;1.77;;
663;SDS011;314;48.770;9.246;2022-09-03T19:55:20;3.30;;;1.77;;
663;SDS011;314;48.770;9.246;2022-09-03T19:58:08;2.15;;;1.67;;
663;SDS011;314;48.770;9.246;2022-09-03T20:00:54;3.40;;;1.20;;
663;SDS011;314;48.770;9.246;2022-09-03T20:03:39;3.90;;;1.75;;
663;SDS011;314;48.770;9.246;2022-09-03T20:06:25;3.95;;;1.48;;
663;SDS011;314;48.770;9.246;2022-09-03T20:09:10;12.30;;;1.98;;
663;SDS011;314;48.770;9.246;2022-09-03T20:11:59;1.55;;;1.25;;
663;SDS011;314;48.770;9.246;2022-09-03T20:14:29;4.00;;;2.25;;
663;SDS011;314;48.770;9.246;2022-09-03T20:19:56;2.47;;;1.35;;
663;SDS011;314;48.770;9.246;2022-09-03T20:22:46;2.10;;;1.50;;
663;SDS011;314;48.770;9.246;2022-09-03T20:25:36;2.75;;;1.58;;
663;SDS011;314;48.770;9.246;2022-09-03T20:28:10;2.80;;;1.35;;
663;SDS011;314;48.770;9.246;2022-09-03T20:30:55;13.95;;;2.25;;
663;SDS011;314;48.770;9.246;2022-09-03T20:33:45;10.70;;;1.88;;
663;SDS011;314;48.770;9.246;2022-09-03T20:37:13;2.60;;;1.38;;
663;SDS011;314;48.770;9.246;2022-09-03T20:42:28;3.50;;;2.00;;
663;SDS011;314;48.770;9.246;2022-09-03T20:48:03;3.72;;;2.35;;
663;SDS011;314;48.770;9.246;2022-09-03T20:53:19;1.77;;;1.38;;
663;SDS011;314;48.770;9.246;2022-09-03T20:56:00;2.67;;;1.60;;
663;SDS011;314;48.770;9.246;2022-09-03T21:02:10;1.70;;;1.60;;
663;SDS011;314;48.770;9.246;2022-09-03T21:07:42;3.65;;;1.45;;
663;SDS011;314;48.770;9.246;2022-09-03T21:15:42;1.70;;;1.30;;
663;SDS011;314;48.770;9.246;2022-09-03T21:18:36;3.35;;;2.00;;
663;SDS011;314;48.770;9.246;2022-09-03T21:24:20;3.03;;;1.80;;
663;SDS011;314;48.770;9.246;2022-09-03T21:27:03;4.07;;;2.10;;
663;SDS011;314;48.770;9.246;2022-09-03T21:32:09;2.70;;;1.52;;
663;SDS011;314;48.770;9.246;2022-09-03T21:37:18;3.50;;;2.05;;
663;SDS011;314;48.770;9.246;2022-09-03T21:42:35;3.30;;;1.95;;
663;SDS011;314;48.770;9.246;2022-09-03T21:45:08;2.58;;;1.85;;
663;SDS011;314;48.770;9.246;2022-09-03T21:47:47;2.60;;;1.73;;
663;SDS011;314;48.770;9.246;2022-09-03T21:50:19;4.07;;;1.90;;
663;SDS011;314;48.770;9.246;2022-09-03T21:53:03;6.43;;;3.08;;
663;SDS011;314;48.770;9.246;2022-09-03T21:55:41;3.20;;;1.80;;
663;SDS011;314;48.770;9.246;2022-09-03T21:58:56;2.30;;;2.10;;
663;SDS011;314;48.770;9.246;2022-09-03T22:01:30;4.43;;;2.10;;
663;SDS011;314;48.770;9.246;2022-09-03T22:03:57;3.45;;;1.80;;
663;SDS011;314;48.770;9.246;2022-09-03T22:09:17;2.15;;;1.50;;
663;SDS011;314;48.770;9.246;2022-09-03T22:14:38;3.55;;;1.30;;
663;SDS011;314;48.770;9.246;2022-09-03T22:20:11;3.85;;;2.05;;
663;SDS011;314;48.770;9.246;2022-09-03T22:22:44;1.60;;;1.55;;
663;SDS011;314;48.770;9.246;2022-09-03T22:28:01;2.58;;;1.50;;
663;SDS011;314;48.770;9.246;2022-09-03T22:30:49;2.90;;;1.23;;
663;SDS011;314;48.770;9.246;2022-09-03T22:33:30;1.25;;;1.10;;
663;SDS011;314;48.770;9.246;2022-09-03T22:46:38;5.10;;;2.45;;
663;SDS011;314;48.770;9.246;2022-09-03T22:49:29;4.88;;;2.00;;
663;SDS011;314;48.770;9.246;2022-09-03T22:55:15;1.83;;;1.60;;
663;SDS011;314;48.770;9.246;2022-09-03T22:58:00;3.60;;;2.03;;
663;SDS011;314;48.770;9.246;2022-09-03T23:00:45;6.03;;;2.30;;
663;SDS011;314;48.770;9.246;2022-09-03T23:03:49;1.73;;;1.08;;
663;SDS011;314;48.770;9.246;2022-09-03T23:06:38;7.28;;;3.08;;
663;SDS011;314;48.770;9.246;2022-09-03T23:09:16;3.20;;;1.90;;
663;SDS011;314;48.770;9.246;2022-09-03T23:11:58;3.30;;;1.35;;
663;SDS011;314;48.770;9.246;2022-09-03T23:14:27;2.88;;;1.55;;
663;SDS011;314;48.770;9.246;2022-09-03T23:17:02;1.48;;;1.02;;
663;SDS011;314;48.770;9.246;2022-09-03T23:19:42;2.08;;;1.45;;
663;SDS011;314;48.770;9.246;2022-09-03T23:22:14;1.95;;;1.48;;
663;SDS011;314;48.770;9.246;2022-09-03T23:24:59;1.25;;;0.88;;
663;SDS011;314;48.770;9.246;2022-09-03T23:27:36;15.23;;;2.47;;